createdAt,value
2022-10-11T00:02:35.666Z,21.00
2022-10-11T00:05:39.408Z,21.00
2022-10-11T00:08:42.382Z,21.00
2022-10-11T00:11:45.405Z,21.04
2022-10-11T00:14:48.434Z,21.04
2022-10-11T00:17:52.815Z,21.05
2022-10-11T00:21:03.303Z,21.05
2022-10-11T00:24:07.273Z,21.03
2022-10-11T00:27:11.471Z,21.05
2022-10-11T00:30:15.007Z,21.04
2022-10-11T00:33:19.415Z,21.04
2022-10-11T00:36:23.118Z,21.03
2022-10-11T00:39:26.115Z,21.02
2022-10-11T00:42:29.551Z,20.99
2022-10-11T00:46:01.909Z,20.97
2022-10-11T00:49:13.915Z,20.98
2022-10-11T00:52:21.911Z,20.99
2022-10-11T00:55:31.375Z,20.99
2022-10-11T00:58:36.677Z,21.02
2022-10-11T01:01:39.790Z,20.98
2022-10-11T01:04:44.727Z,20.99
2022-10-11T01:07:48.969Z,20.98
2022-10-11T01:10:52.678Z,21.00
2022-10-11T01:14:15.993Z,20.99
2022-10-11T01:17:26.989Z,20.98
2022-10-11T01:20:41.733Z,20.98
2022-10-11T01:24:17.002Z,20.99
2022-10-11T01:27:42.327Z,20.98
2022-10-11T01:30:47.690Z,20.99
2022-10-11T01:33:56.104Z,20.97
2022-10-11T01:37:05.365Z,20.97
2022-10-11T01:40:12.585Z,20.99
2022-10-11T01:43:17.809Z,20.99
2022-10-11T01:46:23.052Z,20.96
2022-10-11T01:49:26.180Z,20.96
2022-10-11T01:52:31.400Z,20.92
2022-10-11T01:55:43.862Z,20.92
2022-10-11T01:59:03.540Z,20.93
2022-10-11T02:02:19.935Z,20.96
2022-10-11T02:05:31.405Z,20.93
2022-10-11T02:08:40.163Z,20.92
2022-10-11T02:11:43.407Z,20.93
2022-10-11T02:14:50.720Z,20.94
2022-10-11T02:17:58.339Z,20.91
2022-10-11T02:24:11.747Z,20.92
2022-10-11T02:27:17.716Z,20.92
2022-10-11T02:30:21.288Z,20.96
2022-10-11T02:33:29.354Z,20.91
2022-10-11T02:36:38.792Z,20.91
2022-10-11T02:39:46.122Z,20.91
2022-10-11T02:42:53.752Z,20.89
2022-10-11T02:46:00.962Z,20.92
2022-10-11T02:49:05.653Z,20.90
2022-10-11T02:52:08.795Z,20.88
2022-10-11T02:55:13.015Z,20.92
2022-10-11T02:58:16.042Z,20.93
2022-10-11T03:01:19.122Z,20.90
2022-10-11T03:04:23.721Z,20.92
2022-10-11T03:07:26.771Z,20.92
2022-10-11T03:10:29.796Z,20.97
2022-10-11T03:13:32.781Z,21.02
2022-10-11T03:16:35.791Z,21.02
2022-10-11T03:19:40.154Z,21.04
2022-10-11T03:22:43.193Z,21.07
2022-10-11T03:25:46.973Z,21.08
2022-10-11T03:28:50.064Z,21.09
2022-10-11T03:31:53.089Z,21.10
2022-10-11T03:34:57.765Z,21.11
2022-10-11T03:38:00.788Z,21.10
2022-10-11T03:41:03.941Z,21.13
2022-10-11T03:44:07.011Z,21.03
2022-10-11T03:47:10.672Z,20.90
2022-10-11T03:50:15.043Z,20.86
2022-10-11T03:53:18.322Z,20.83
2022-10-11T03:56:21.301Z,20.79
2022-10-11T03:59:24.457Z,20.78
2022-10-11T04:02:27.428Z,20.80
2022-10-11T04:05:31.970Z,20.80
2022-10-11T04:08:35.062Z,20.73
2022-10-11T04:11:38.302Z,20.57
2022-10-11T04:14:41.531Z,20.42
2022-10-11T04:17:44.505Z,20.49
2022-10-11T04:20:48.931Z,20.79
2022-10-11T04:23:51.987Z,20.83
2022-10-11T04:26:55.220Z,20.87
2022-10-11T04:29:58.249Z,20.90
2022-10-11T04:33:01.252Z,20.92
2022-10-11T04:36:06.740Z,20.92
2022-10-11T04:39:10.632Z,20.92
2022-10-11T04:42:13.784Z,20.92
2022-10-11T04:45:16.866Z,20.92
2022-10-11T04:48:19.977Z,20.92
2022-10-11T04:51:25.070Z,20.90
2022-10-11T04:54:28.673Z,20.91
2022-10-11T04:57:31.868Z,20.91
2022-10-11T05:00:34.872Z,20.90
2022-10-11T05:03:38.696Z,20.91
2022-10-11T05:06:43.123Z,20.91
2022-10-11T05:09:46.143Z,20.91
2022-10-11T05:12:49.357Z,20.90
2022-10-11T05:15:52.429Z,20.91
2022-10-11T05:18:55.528Z,20.91
2022-10-11T05:21:59.911Z,20.92
2022-10-11T05:25:02.966Z,20.97
2022-10-11T05:28:06.491Z,20.96
2022-10-11T05:31:09.607Z,20.96
2022-10-11T05:34:12.670Z,20.96
2022-10-11T05:37:17.042Z,20.97
2022-10-11T05:40:20.041Z,20.97
2022-10-11T05:43:23.053Z,20.99
2022-10-11T05:46:26.094Z,20.98
2022-10-11T05:49:29.295Z,21.00
2022-10-11T05:52:34.053Z,20.98
2022-10-11T05:55:38.466Z,20.98
2022-10-11T05:58:41.466Z,20.99
2022-10-11T06:01:44.565Z,20.98
2022-10-11T06:04:47.952Z,20.98
2022-10-11T06:07:52.604Z,20.99
2022-10-11T06:10:55.552Z,20.98
2022-10-11T06:13:59.565Z,21.00
2022-10-11T06:17:02.606Z,20.97
2022-10-11T06:20:06.437Z,20.97
2022-10-11T06:23:10.881Z,20.94
2022-10-11T06:26:13.840Z,20.92
2022-10-11T06:29:16.913Z,20.93
2022-10-11T06:32:20.202Z,20.93
2022-10-11T06:35:23.255Z,20.93
2022-10-11T06:38:27.735Z,20.93
2022-10-11T06:41:31.771Z,20.92
2022-10-11T06:44:34.710Z,20.94
2022-10-11T06:50:59.131Z,20.93
2022-10-11T06:54:05.341Z,20.92
2022-10-11T07:00:12.872Z,20.95
2022-10-11T07:03:16.023Z,20.93
2022-10-11T07:09:24.007Z,20.93
2022-10-11T07:12:27.017Z,20.91
2022-10-11T07:15:30.092Z,20.94
2022-10-11T07:21:36.875Z,20.94
2022-10-11T07:24:41.277Z,20.92
2022-10-11T07:27:44.240Z,20.93
2022-10-11T07:30:47.285Z,20.93
2022-10-11T07:33:50.502Z,20.93
2022-10-11T07:36:53.488Z,20.94
2022-10-11T07:39:57.882Z,20.94
2022-10-11T07:43:01.011Z,20.92
2022-10-11T07:46:05.388Z,20.92
2022-10-11T07:49:08.651Z,20.93
2022-10-11T07:52:11.671Z,20.93
2022-10-11T07:55:16.170Z,20.96
2022-10-11T07:58:19.115Z,20.96
2022-10-11T08:01:22.878Z,20.96
2022-10-11T08:04:25.913Z,20.95
2022-10-11T08:07:30.005Z,20.97
2022-10-11T08:10:40.349Z,20.96
2022-10-11T08:13:43.403Z,20.97
2022-10-11T08:16:46.413Z,20.99
2022-10-11T08:19:49.568Z,20.97
2022-10-11T08:22:52.619Z,20.97
2022-10-11T08:25:58.623Z,20.99
2022-10-11T08:29:03.487Z,20.99
2022-10-11T08:32:06.844Z,20.99
2022-10-11T08:35:10.206Z,21.01
2022-10-11T08:38:13.777Z,21.03
2022-10-11T08:41:37.375Z,21.04
2022-10-11T08:45:09.400Z,21.08
2022-10-11T08:48:15.085Z,21.07
2022-10-11T08:51:22.463Z,21.10
2022-10-11T08:54:38.349Z,21.10
2022-10-11T08:57:49.871Z,21.09
2022-10-11T09:00:55.709Z,21.10
2022-10-11T09:04:00.170Z,21.10
2022-10-11T09:07:08.463Z,21.10
2022-10-11T09:10:34.033Z,21.11
2022-10-11T09:13:56.361Z,21.12
2022-10-11T09:17:08.380Z,21.12
2022-10-11T09:20:25.365Z,21.10
2022-10-11T09:23:47.936Z,21.12
2022-10-11T09:26:57.225Z,21.13
2022-10-11T09:30:05.337Z,21.13
2022-10-11T09:33:16.544Z,21.12
2022-10-11T09:36:27.110Z,21.13
2022-10-11T09:39:32.749Z,21.13
2022-10-11T09:42:35.750Z,21.16
2022-10-11T09:45:49.264Z,21.17
2022-10-11T09:48:54.625Z,21.18
2022-10-11T09:52:00.652Z,21.16
2022-10-11T09:55:04.749Z,21.19
2022-10-11T09:58:31.152Z,21.19
2022-10-11T10:01:36.234Z,21.23
2022-10-11T10:04:56.626Z,21.23
2022-10-11T10:08:05.120Z,21.22
2022-10-11T10:11:10.642Z,21.23
2022-10-11T10:14:24.044Z,21.20
2022-10-11T10:17:28.524Z,21.23
2022-10-11T10:20:34.640Z,21.23
2022-10-11T10:23:38.771Z,21.24
2022-10-11T10:26:41.790Z,21.23
2022-10-11T10:29:45.529Z,21.23
2022-10-11T10:32:57.014Z,21.24
2022-10-11T10:36:06.775Z,21.25
2022-10-11T10:39:23.254Z,21.26
2022-10-11T10:42:26.438Z,21.27
2022-10-11T10:45:40.037Z,21.29
2022-10-11T10:52:47.699Z,21.32
2022-10-11T10:55:56.845Z,21.34
2022-10-11T10:59:15.411Z,21.33
2022-10-11T11:02:39.676Z,21.33
2022-10-11T11:05:52.755Z,21.34
2022-10-11T11:09:12.186Z,21.34
2022-10-11T11:12:39.625Z,21.34
2022-10-11T11:15:49.189Z,21.34
2022-10-11T11:18:59.446Z,21.35
2022-10-11T11:22:11.142Z,21.35
2022-10-11T11:25:25.873Z,21.37
2022-10-11T11:28:46.923Z,21.35
2022-10-11T11:32:09.654Z,21.45
2022-10-11T11:35:21.349Z,21.50
2022-10-11T11:38:35.288Z,21.55
2022-10-11T11:41:41.918Z,21.57
2022-10-11T11:44:48.423Z,21.56
2022-10-11T11:47:55.939Z,21.58
2022-10-11T11:51:07.352Z,21.59
2022-10-11T11:54:25.310Z,21.58
2022-10-11T11:57:40.330Z,21.55
2022-10-11T12:00:52.802Z,21.49
2022-10-11T12:03:58.905Z,21.42
2022-10-11T12:07:22.393Z,21.43
2022-10-11T12:10:31.154Z,21.41
2022-10-11T12:13:37.066Z,21.40
2022-10-11T12:17:07.258Z,21.40
2022-10-11T12:20:17.880Z,21.35
2022-10-11T12:23:48.276Z,21.36
2022-10-11T12:26:56.049Z,21.38
2022-10-11T12:29:59.082Z,21.38
2022-10-11T12:33:07.976Z,21.35
2022-10-11T12:36:35.595Z,21.33
2022-10-11T12:39:51.852Z,21.35
2022-10-11T12:43:23.892Z,21.33
2022-10-11T12:47:25.452Z,21.32
2022-10-11T12:50:34.818Z,21.34
2022-10-11T12:54:25.379Z,21.32
2022-10-11T12:58:00.896Z,21.30
2022-10-11T13:01:22.096Z,21.31
2022-10-11T13:04:29.324Z,21.29
2022-10-11T13:07:33.023Z,21.29
2022-10-11T13:10:43.633Z,21.29
2022-10-11T13:13:51.931Z,21.28
2022-10-11T13:17:05.815Z,21.25
2022-10-11T13:20:17.208Z,21.25
2022-10-11T13:23:23.878Z,21.27
2022-10-11T13:26:28.279Z,21.26
2022-10-11T13:29:34.666Z,21.20
2022-10-11T13:32:39.452Z,21.25
2022-10-11T13:35:42.837Z,21.25
2022-10-11T13:38:53.742Z,21.25
2022-10-11T13:41:58.206Z,21.24
2022-10-11T13:45:01.886Z,21.23
2022-10-11T13:48:15.138Z,21.23
2022-10-11T13:51:29.748Z,21.23
2022-10-11T13:54:59.114Z,21.23
2022-10-11T13:58:04.288Z,21.23
2022-10-11T14:01:17.852Z,21.23
2022-10-11T14:04:26.140Z,21.23
2022-10-11T14:07:37.436Z,21.23
2022-10-11T14:10:40.620Z,21.23
2022-10-11T14:13:45.532Z,21.22
2022-10-11T14:16:56.920Z,21.20
2022-10-11T14:20:15.515Z,21.20
2022-10-11T14:23:18.539Z,21.20
2022-10-11T14:26:23.044Z,21.19
2022-10-11T14:29:28.589Z,21.19
2022-10-11T14:32:34.206Z,21.19
2022-10-11T14:35:38.832Z,21.19
2022-10-11T14:38:41.986Z,21.18
2022-10-11T14:41:45.363Z,21.15
2022-10-11T14:44:48.503Z,21.15
2022-10-11T14:47:52.045Z,21.14
2022-10-11T14:51:01.239Z,21.14
2022-10-11T14:54:04.251Z,21.17
2022-10-11T14:57:07.276Z,21.16
2022-10-11T15:00:17.493Z,21.17
2022-10-11T15:03:20.519Z,21.18
2022-10-11T15:06:28.422Z,21.18
2022-10-11T15:09:31.818Z,21.17
2022-10-11T15:12:34.858Z,21.18
2022-10-11T15:15:41.157Z,21.18
2022-10-11T15:18:50.762Z,21.19
2022-10-11T15:21:55.204Z,21.18
2022-10-11T15:25:00.296Z,21.09
2022-10-11T15:28:03.365Z,21.11
2022-10-11T15:31:06.504Z,21.14
2022-10-11T15:34:11.359Z,21.15
2022-10-11T15:37:15.845Z,21.15
2022-10-11T15:40:23.502Z,21.16
2022-10-11T15:43:27.927Z,21.18
2022-10-11T15:46:31.031Z,21.17
2022-10-11T15:49:34.024Z,21.17
2022-10-11T15:52:38.478Z,21.17
2022-10-11T15:55:43.925Z,21.17
2022-10-11T15:58:48.072Z,21.17
2022-10-11T16:01:51.297Z,21.19
2022-10-11T16:04:54.626Z,21.18
2022-10-11T16:07:59.315Z,21.17
2022-10-11T16:11:02.583Z,21.19
2022-10-11T16:14:06.165Z,21.20
2022-10-11T16:17:09.155Z,21.18
2022-10-11T16:20:12.265Z,21.18
2022-10-11T16:23:16.997Z,21.26
2022-10-11T16:26:20.035Z,21.34
2022-10-11T16:29:24.262Z,21.39
2022-10-11T16:32:28.190Z,21.45
2022-10-11T16:35:32.801Z,21.50
2022-10-11T16:38:37.287Z,21.57
2022-10-11T16:41:40.354Z,21.57
2022-10-11T16:44:43.337Z,21.56
2022-10-11T16:47:46.510Z,21.59
2022-10-11T16:50:49.541Z,21.62
2022-10-11T16:53:54.471Z,21.64
2022-10-11T16:56:58.082Z,21.65
2022-10-11T17:00:01.357Z,21.55
2022-10-11T17:03:04.366Z,21.51
2022-10-11T17:06:08.793Z,21.51
2022-10-11T17:09:14.236Z,21.49
2022-10-11T17:12:19.784Z,21.45
2022-10-11T17:15:23.216Z,21.43
2022-10-11T17:18:26.259Z,21.44
2022-10-11T17:21:29.257Z,21.68
2022-10-11T17:24:35.894Z,21.71
2022-10-11T17:27:38.978Z,21.78
2022-10-11T17:30:42.289Z,22.24
2022-10-11T17:33:45.502Z,23.32
2022-10-11T17:36:49.227Z,24.07
2022-10-11T17:39:53.929Z,24.60
2022-10-11T17:42:57.089Z,24.74
2022-10-11T17:46:02.110Z,24.85
2022-10-11T17:49:08.139Z,24.97
2022-10-11T17:52:11.327Z,25.01
2022-10-11T17:55:16.798Z,25.01
2022-10-11T17:58:19.970Z,25.12
2022-10-11T18:01:24.632Z,25.26
2022-10-11T18:04:29.950Z,25.31
2022-10-11T18:07:33.062Z,25.11
2022-10-11T18:10:38.382Z,25.01
2022-10-11T18:13:45.989Z,25.02
2022-10-11T18:16:49.067Z,24.89
2022-10-11T18:19:52.382Z,24.85
2022-10-11T18:23:00.535Z,24.85
2022-10-11T18:26:11.841Z,24.93
2022-10-11T18:29:17.179Z,24.77
2022-10-11T18:32:21.079Z,24.92
2022-10-11T18:35:24.139Z,24.97
2022-10-11T18:38:27.326Z,25.03
2022-10-11T18:41:32.977Z,25.08
2022-10-11T18:44:36.017Z,25.11
2022-10-11T18:47:39.203Z,25.10
2022-10-11T18:50:42.280Z,25.07
2022-10-11T18:53:46.399Z,25.08
2022-10-11T18:56:50.981Z,25.12
2022-10-11T18:59:54.447Z,25.17
2022-10-11T19:02:57.450Z,25.21
2022-10-11T19:06:03.962Z,25.26
2022-10-11T19:09:09.148Z,25.23
2022-10-11T19:12:14.308Z,25.30
2022-10-11T19:15:17.727Z,25.29
2022-10-11T19:18:20.972Z,25.34
2022-10-11T19:21:24.404Z,25.40
2022-10-11T19:24:29.846Z,25.23
2022-10-11T19:27:34.290Z,25.01
2022-10-11T19:30:37.408Z,24.97
2022-10-11T19:33:40.741Z,25.20
2022-10-11T19:36:44.277Z,25.32
2022-10-11T19:39:47.405Z,25.41
2022-10-11T19:42:51.886Z,25.44
2022-10-11T19:46:01.393Z,25.49
2022-10-11T19:49:04.566Z,25.55
2022-10-11T19:52:09.623Z,25.56
2022-10-11T19:55:12.711Z,25.56
2022-10-11T19:58:17.549Z,25.57
2022-10-11T20:01:22.638Z,25.63
2022-10-11T20:07:49.328Z,25.59
2022-10-11T20:10:54.426Z,25.66
2022-10-11T20:13:59.047Z,25.65
2022-10-11T20:17:02.284Z,24.78
2022-10-11T20:20:05.813Z,24.31
2022-10-11T20:23:08.854Z,23.87
2022-10-11T20:26:13.970Z,23.53
2022-10-11T20:29:18.460Z,23.19
2022-10-11T20:32:21.463Z,23.13
2022-10-11T20:35:24.487Z,23.01
2022-10-11T20:38:27.771Z,22.93
2022-10-11T20:41:32.920Z,22.83
2022-10-11T20:44:37.634Z,22.77
2022-10-11T20:47:40.707Z,22.76
2022-10-11T20:50:45.672Z,22.68
2022-10-11T20:53:48.711Z,22.64
2022-10-11T20:56:51.740Z,22.64
2022-10-11T20:59:56.145Z,22.59
2022-10-11T21:02:59.115Z,22.51
2022-10-11T21:06:02.186Z,22.49
2022-10-11T21:09:05.600Z,22.42
2022-10-11T21:12:08.850Z,22.41
2022-10-11T21:15:13.422Z,22.34
2022-10-11T21:18:16.842Z,22.35
2022-10-11T21:21:20.283Z,22.33
2022-10-11T21:24:23.704Z,22.31
2022-10-11T21:27:26.934Z,22.27
2022-10-11T21:30:32.170Z,22.22
2022-10-11T21:33:36.054Z,22.19
2022-10-11T21:36:39.136Z,22.17
2022-10-11T21:39:42.162Z,22.16
2022-10-11T21:42:45.244Z,22.09
2022-10-11T21:45:49.868Z,22.09
2022-10-11T21:48:52.963Z,22.09
2022-10-11T21:51:56.519Z,22.02
2022-10-11T21:54:59.488Z,22.06
2022-10-11T21:58:02.586Z,22.02
2022-10-11T22:01:07.537Z,21.98
2022-10-11T22:04:12.024Z,22.00
2022-10-11T22:07:15.025Z,21.98
2022-10-11T22:10:18.192Z,21.96
2022-10-11T22:13:21.282Z,21.97
2022-10-11T22:16:25.710Z,21.97
2022-10-11T22:19:28.705Z,21.94
2022-10-11T22:22:31.766Z,21.94
2022-10-11T22:25:36.124Z,21.92
2022-10-11T22:28:39.329Z,21.90
2022-10-11T22:31:43.749Z,21.89
2022-10-11T22:34:46.706Z,21.87
2022-10-11T22:37:50.406Z,21.86
2022-10-11T22:40:53.787Z,21.84
2022-10-11T22:43:56.794Z,21.84
2022-10-11T22:47:01.303Z,21.82
2022-10-11T22:50:04.811Z,21.86
2022-10-11T22:53:08.346Z,21.83
2022-10-11T22:56:11.685Z,21.81
2022-10-11T22:59:14.739Z,21.79
2022-10-11T23:02:19.174Z,21.76
2022-10-11T23:05:22.208Z,21.76
2022-10-11T23:08:25.690Z,21.71
2022-10-11T23:11:28.935Z,21.73
2022-10-11T23:14:31.924Z,21.73
2022-10-11T23:17:36.572Z,21.71
2022-10-11T23:20:40.506Z,21.70
2022-10-11T23:23:43.527Z,21.71
2022-10-11T23:26:46.518Z,21.69
2022-10-11T23:29:49.543Z,21.68
2022-10-11T23:32:54.004Z,21.68
2022-10-11T23:35:57.020Z,21.66
2022-10-11T23:39:00.678Z,21.66
2022-10-11T23:42:03.846Z,21.66
2022-10-11T23:45:07.842Z,21.65
2022-10-11T23:48:12.956Z,21.61
2022-10-11T23:51:16.600Z,21.64
2022-10-11T23:54:19.625Z,21.63
2022-10-11T23:57:22.676Z,21.61
